Mt Bachelor previous 24hr weather report
        updated 10/22/2014 21:08
Year Month Date Time Base Pmx Smt Pmx Smt Pmx Pmx Pmx Smt Smt Smt Srx Srx Srx
Temp Temp Temp RH RH wind wind wind wind wind wind wind wind wind
6300' 7800' 9000' 7800' 9000' avg max dir avg max dir avg max dir
1 2014 10 22 10/22/2014 2100 43.4 36.9 97 30 53 121
2 2014 10 22 10/22/2014 2000 42.9 36.7 97 26 62 112
3 2014 10 22 10/22/2014 1900 42.1 36.6 98 17 36 148
4 2014 10 22 10/22/2014 1800 43.7 36.8 97 23 43 125
5 2014 10 22 10/22/2014 1700 44.9 36.9 97 24 65 108
6 2014 10 22 10/22/2014 1600 46.1 37.1 97 25 63 108
7 2014 10 22 10/22/2014 1500 46.7 36.9 97 21 53 114
8 2014 10 22 10/22/2014 1400 48 36.8 97 27 52 108
9 2014 10 22 10/22/2014 1300 48.3 36.2 97 24 56 115
10 2014 10 22 10/22/2014 1200 48.4 35.8 97 24 40 124
11 2014 10 22 10/22/2014 1100 48.7 36 97 26 40 123
12 2014 10 22 10/22/2014 1000 47.6 35.9 97 32 47 129
13 2014 10 22 10/22/2014 900 44 35.2 97 36 47 128
14 2014 10 22 10/22/2014 800 41.3 34.7 97 29 45 136
15 2014 10 22 10/22/2014 700 40.4 34.8 97 26 38 128
16 2014 10 22 10/22/2014 600 40.3 34.6 97 29 37 144
17 2014 10 22 10/22/2014 500 40.2 34.6 97 29 42 128
18 2014 10 22 10/22/2014 400 40.1 34.2 97 30 42 148
19 2014 10 22 10/22/2014 300 39.6 33.8 97 32 45 162
20 2014 10 22 10/22/2014 200 39.9 33.2 98 33 48 165
21 2014 10 22 10/22/2014 100 40.5 32.9 97 34 46 136
22 2014 10 21 10/21/2014 2400 39.7 31.6 97 24 37 115
23 2014 10 21 10/21/2014 2300 39.4 31.4 95 22 36 115
24 2014 10 21 10/21/2014 2200 38.4 31.2 90 29 40 90
1 2014 10 21 10/21/2014 2100 36.4 30.7 89 28 37 101